createdAt,value
2018-03-04T00:00:52.475Z,92
2018-03-04T00:01:51.977Z,92
2018-03-04T00:02:52.517Z,92
2018-03-04T00:03:52.211Z,92
2018-03-04T00:04:52.450Z,92
2018-03-04T00:05:52.436Z,92
2018-03-04T00:07:52.813Z,92
2018-03-04T00:08:52.211Z,92
2018-03-04T00:09:52.463Z,92
2018-03-04T00:10:52.471Z,92
2018-03-04T00:11:52.052Z,92
2018-03-04T00:12:52.024Z,92
2018-03-04T00:13:52.416Z,92
2018-03-04T00:14:52.236Z,92
2018-03-04T00:15:52.245Z,92
2018-03-04T00:16:52.419Z,92
2018-03-04T00:17:52.490Z,92
2018-03-04T00:18:52.028Z,92
2018-03-04T00:19:52.487Z,92
2018-03-04T00:20:52.443Z,92
2018-03-04T00:21:52.462Z,92
2018-03-04T00:22:52.238Z,92
2018-03-04T00:23:52.415Z,92
2018-03-04T00:24:52.513Z,92
2018-03-04T00:25:52.520Z,92
2018-03-04T00:26:52.493Z,92
2018-03-04T00:27:52.524Z,92
2018-03-04T00:28:52.252Z,92
2018-03-04T00:29:52.016Z,92
2018-03-04T00:30:52.282Z,92
2018-03-04T00:31:52.094Z,92
2018-03-04T00:32:52.529Z,92
2018-03-04T00:33:52.514Z,93
2018-03-04T00:34:52.051Z,93
2018-03-04T00:35:52.554Z,93
2018-03-04T00:36:52.513Z,93
2018-03-04T00:37:52.240Z,93
2018-03-04T00:38:52.550Z,93
2018-03-04T00:39:53.217Z,93
2018-03-04T00:40:52.499Z,93
2018-03-04T00:41:52.233Z,93
2018-03-04T00:42:52.509Z,93
2018-03-04T00:43:52.083Z,93
2018-03-04T00:44:52.071Z,93
2018-03-04T00:45:52.103Z,93
2018-03-04T00:46:52.468Z,93
2018-03-04T00:47:52.472Z,93
2018-03-04T00:48:52.174Z,93
2018-03-04T00:49:52.417Z,93
2018-03-04T00:50:52.149Z,93
2018-03-04T00:52:52.296Z,93
2018-03-04T00:53:52.286Z,93
2018-03-04T00:54:52.578Z,93
2018-03-04T00:55:52.482Z,93
2018-03-04T00:56:52.320Z,93
2018-03-04T00:57:52.572Z,93
2018-03-04T00:58:52.069Z,93
2018-03-04T00:59:52.583Z,93
2018-03-04T01:00:52.316Z,93
2018-03-04T01:01:52.578Z,93
2018-03-04T01:02:52.280Z,93
2018-03-04T01:03:52.613Z,93
2018-03-04T01:04:52.308Z,93
2018-03-04T01:06:52.619Z,93
2018-03-04T01:08:52.166Z,93
2018-03-04T01:09:52.580Z,93
2018-03-04T01:10:52.580Z,93
2018-03-04T01:11:52.500Z,93
2018-03-04T01:12:52.340Z,93
2018-03-04T01:13:52.122Z,93
2018-03-04T01:14:52.326Z,93
2018-03-04T01:15:52.590Z,93
2018-03-04T01:16:52.540Z,93
2018-03-04T01:17:52.486Z,93
2018-03-04T01:18:52.551Z,93
2018-03-04T01:19:52.308Z,93
2018-03-04T01:20:52.149Z,93
2018-03-04T01:21:52.171Z,93
2018-03-04T01:22:53.032Z,93
2018-03-04T01:23:52.380Z,93
2018-03-04T01:24:52.595Z,93
2018-03-04T01:25:52.652Z,93
2018-03-04T01:26:52.136Z,93
2018-03-04T01:27:52.358Z,93
2018-03-04T01:28:52.164Z,93
2018-03-04T01:29:52.360Z,93
2018-03-04T01:30:52.169Z,93
2018-03-04T01:31:52.531Z,93
2018-03-04T01:32:52.633Z,93
2018-03-04T01:34:52.398Z,93
2018-03-04T01:35:52.622Z,93
2018-03-04T01:36:52.609Z,93
2018-03-04T01:37:52.626Z,93
2018-03-04T01:38:52.636Z,93
2018-03-04T01:39:52.351Z,93
2018-03-04T01:40:52.646Z,93
2018-03-04T01:41:52.539Z,93
2018-03-04T01:42:52.575Z,93
2018-03-04T01:43:52.607Z,93
2018-03-04T01:45:52.561Z,93
2018-03-04T01:46:52.390Z,93
2018-03-04T01:47:52.220Z,93
2018-03-04T01:48:52.211Z,93
2018-03-04T01:49:52.603Z,93
2018-03-04T01:50:52.422Z,93
2018-03-04T01:51:52.725Z,93
2018-03-04T01:53:52.379Z,93
2018-03-04T01:54:52.605Z,93
2018-03-04T01:55:52.373Z,94
2018-03-04T01:56:52.172Z,94
2018-03-04T01:58:52.668Z,94
2018-03-04T01:59:52.638Z,94
2018-03-04T02:00:52.584Z,94
2018-03-04T02:01:52.695Z,94
2018-03-04T02:02:52.300Z,94
2018-03-04T02:03:52.358Z,94
2018-03-04T02:04:52.625Z,94
2018-03-04T02:05:52.648Z,94
2018-03-04T02:06:52.422Z,94
2018-03-04T02:07:52.419Z,94
2018-03-04T02:09:52.243Z,94
2018-03-04T02:10:52.694Z,94
2018-03-04T02:11:52.468Z,94
2018-03-04T02:12:52.650Z,94
2018-03-04T02:13:52.716Z,94
2018-03-04T02:14:52.400Z,94
2018-03-04T02:15:52.673Z,94
2018-03-04T02:16:52.397Z,94
2018-03-04T02:17:52.673Z,94
2018-03-04T02:18:52.220Z,94
2018-03-04T02:19:52.689Z,94
2018-03-04T02:20:52.213Z,94
2018-03-04T02:21:52.629Z,94
2018-03-04T02:23:52.421Z,94
2018-03-04T02:24:52.671Z,94
2018-03-04T02:25:52.198Z,94
2018-03-04T02:26:52.435Z,94
2018-03-04T02:28:52.255Z,94
2018-03-04T02:29:52.499Z,94
2018-03-04T02:30:52.730Z,94
2018-03-04T02:31:52.228Z,94
2018-03-04T02:32:52.655Z,94
2018-03-04T02:33:52.473Z,94
2018-03-04T02:34:52.315Z,94
2018-03-04T02:35:52.437Z,94
2018-03-04T02:36:52.697Z,94
2018-03-04T02:37:52.239Z,94
2018-03-04T02:38:52.712Z,94
2018-03-04T02:39:52.334Z,94
2018-03-04T02:40:52.280Z,94
2018-03-04T02:41:52.732Z,94
2018-03-04T02:42:52.281Z,94
2018-03-04T02:43:52.667Z,94
2018-03-04T02:45:52.306Z,94
2018-03-04T02:46:52.746Z,94
2018-03-04T02:47:52.973Z,94
2018-03-04T02:48:52.274Z,94
2018-03-04T02:49:52.301Z,94
2018-03-04T02:50:52.506Z,94
2018-03-04T02:51:52.720Z,94
2018-03-04T02:52:52.727Z,94
2018-03-04T02:55:52.763Z,94
2018-03-04T02:56:52.703Z,94
2018-03-04T02:57:52.754Z,94
2018-03-04T02:58:52.509Z,94
2018-03-04T02:59:52.705Z,94
2018-03-04T03:00:52.260Z,94
2018-03-04T03:01:52.833Z,94
2018-03-04T03:02:52.286Z,94
2018-03-04T03:03:52.798Z,93
2018-03-04T03:04:52.526Z,93
2018-03-04T03:05:52.518Z,93
2018-03-04T03:06:52.805Z,93
2018-03-04T03:07:52.579Z,93
2018-03-04T03:08:52.470Z,93
2018-03-04T03:09:52.353Z,93
2018-03-04T03:10:52.716Z,93
2018-03-04T03:11:53.385Z,93
2018-03-04T03:12:52.777Z,93
2018-03-04T03:13:52.375Z,93
2018-03-04T03:14:52.716Z,93
2018-03-04T03:15:52.399Z,93
2018-03-04T03:16:52.389Z,93
2018-03-04T03:17:52.864Z,93
2018-03-04T03:18:52.340Z,93
2018-03-04T03:19:52.584Z,93
2018-03-04T03:20:52.363Z,93
2018-03-04T03:21:52.566Z,93
2018-03-04T03:22:52.789Z,93
2018-03-04T03:23:52.553Z,93
2018-03-04T03:24:52.800Z,93
2018-03-04T03:26:52.790Z,93
2018-03-04T03:27:52.823Z,93
2018-03-04T03:28:52.803Z,93
2018-03-04T03:29:52.371Z,93
2018-03-04T03:31:52.457Z,93
2018-03-04T03:32:52.768Z,93
2018-03-04T03:33:52.811Z,93
2018-03-04T03:34:52.742Z,93
2018-03-04T03:35:52.556Z,93
2018-03-04T03:36:52.379Z,93
2018-03-04T03:37:52.443Z,93
2018-03-04T03:38:52.864Z,93
2018-03-04T03:39:53.076Z,93
2018-03-04T03:40:52.809Z,93
2018-03-04T03:41:52.859Z,93
2018-03-04T03:42:52.424Z,93
2018-03-04T03:43:52.808Z,93
2018-03-04T03:44:52.814Z,93
2018-03-04T03:45:52.867Z,93
2018-03-04T03:46:52.611Z,93
2018-03-04T03:47:52.662Z,93
2018-03-04T03:49:52.900Z,93
2018-03-04T03:50:52.763Z,93
2018-03-04T03:51:54.019Z,93
2018-03-04T03:52:52.395Z,93
2018-03-04T03:53:52.885Z,93
2018-03-04T03:54:52.871Z,93
2018-03-04T03:55:52.495Z,93
2018-03-04T03:56:52.908Z,93
2018-03-04T03:57:52.452Z,93
2018-03-04T03:58:53.313Z,93
2018-03-04T03:59:52.847Z,93
2018-03-04T04:00:52.806Z,93
2018-03-04T04:01:52.497Z,93
2018-03-04T04:02:52.588Z,93
2018-03-04T04:03:52.674Z,93
2018-03-04T04:04:52.433Z,93
2018-03-04T04:05:52.464Z,93
2018-03-04T04:06:52.884Z,93
2018-03-04T04:07:52.902Z,93
2018-03-04T04:08:52.704Z,93
2018-03-04T04:09:52.719Z,93
2018-03-04T04:10:52.854Z,93
2018-03-04T04:11:52.715Z,93
2018-03-04T04:12:52.828Z,93
2018-03-04T04:13:52.738Z,93
2018-03-04T04:15:52.500Z,93
2018-03-04T04:16:52.806Z,93
2018-03-04T04:17:52.894Z,93
2018-03-04T04:18:52.640Z,93
2018-03-04T04:19:52.721Z,93
2018-03-04T04:20:52.894Z,93
2018-03-04T04:21:52.482Z,93
2018-03-04T04:22:52.451Z,93
2018-03-04T04:23:52.848Z,93
2018-03-04T04:25:52.918Z,93
2018-03-04T04:26:52.439Z,93
2018-03-04T04:27:52.917Z,93
2018-03-04T04:28:52.663Z,93
2018-03-04T04:29:52.925Z,93
2018-03-04T04:30:52.962Z,93
2018-03-04T04:31:52.918Z,93
2018-03-04T04:32:52.919Z,93
2018-03-04T04:33:52.520Z,93
2018-03-04T04:34:52.677Z,93
2018-03-04T04:35:52.529Z,93
2018-03-04T04:36:52.721Z,93
2018-03-04T04:37:52.526Z,93
2018-03-04T04:38:52.918Z,93
2018-03-04T04:39:52.953Z,93
2018-03-04T04:40:52.696Z,93
2018-03-04T04:41:53.373Z,93
2018-03-04T04:42:52.655Z,93
2018-03-04T04:43:52.908Z,93
2018-03-04T04:44:52.524Z,93
2018-03-04T04:45:52.769Z,93
2018-03-04T04:46:52.984Z,93
2018-03-04T04:47:52.971Z,93
2018-03-04T04:49:53.020Z,93
2018-03-04T04:51:52.522Z,93
2018-03-04T04:52:52.762Z,93
2018-03-04T04:53:53.182Z,93
2018-03-04T04:54:52.528Z,93
2018-03-04T04:55:53.022Z,93
2018-03-04T04:56:52.967Z,93
2018-03-04T04:57:52.976Z,93
2018-03-04T04:58:52.500Z,93
2018-03-04T04:59:52.513Z,93
2018-03-04T05:00:53.000Z,93
2018-03-04T05:01:52.868Z,93
2018-03-04T05:02:52.965Z,93
2018-03-04T05:03:52.906Z,93
2018-03-04T05:04:52.972Z,93
2018-03-04T05:05:52.705Z,93
2018-03-04T05:06:52.993Z,93
2018-03-04T05:07:52.742Z,93
2018-03-04T05:08:52.744Z,93
2018-03-04T05:09:52.722Z,93
2018-03-04T05:10:52.930Z,93
2018-03-04T05:11:52.540Z,93
2018-03-04T05:12:52.969Z,93
2018-03-04T05:13:52.509Z,93
2018-03-04T05:14:52.713Z,93
2018-03-04T05:15:52.971Z,93
2018-03-04T05:16:52.972Z,93
2018-03-04T05:17:52.726Z,93
2018-03-04T05:18:52.756Z,93
2018-03-04T05:19:52.575Z,93
2018-03-04T05:20:52.940Z,93
2018-03-04T05:21:52.572Z,93
2018-03-04T05:22:52.519Z,93
2018-03-04T05:24:52.551Z,93
2018-03-04T05:25:52.971Z,93
2018-03-04T05:26:53.010Z,93
2018-03-04T05:27:52.985Z,93
2018-03-04T05:28:52.796Z,93
2018-03-04T05:29:53.006Z,93
2018-03-04T05:30:52.976Z,93
2018-03-04T05:32:52.565Z,93
2018-03-04T05:33:52.764Z,93
2018-03-04T05:34:53.073Z,93
2018-03-04T05:35:52.601Z,93
2018-03-04T05:36:52.580Z,93
2018-03-04T05:37:53.038Z,93
2018-03-04T05:38:52.768Z,93
2018-03-04T05:39:53.046Z,93
2018-03-04T05:40:52.574Z,93
2018-03-04T05:41:53.036Z,93
2018-03-04T05:42:52.989Z,93
2018-03-04T05:43:52.598Z,93
2018-03-04T05:44:52.824Z,93
2018-03-04T05:45:53.070Z,93
2018-03-04T05:46:52.828Z,93
2018-03-04T05:48:52.623Z,93
2018-03-04T05:49:52.609Z,93
2018-03-04T05:51:53.074Z,93
2018-03-04T05:52:52.783Z,93
2018-03-04T05:54:53.043Z,93
2018-03-04T05:55:53.012Z,93
2018-03-04T05:56:53.041Z,93
2018-03-04T05:57:52.809Z,93
2018-03-04T05:58:53.082Z,93
2018-03-04T05:59:53.298Z,94
2018-03-04T06:00:52.603Z,94
2018-03-04T06:01:52.635Z,94
2018-03-04T06:02:52.826Z,94
2018-03-04T06:03:52.818Z,94
2018-03-04T06:04:52.613Z,94
2018-03-04T06:05:52.846Z,94
2018-03-04T06:06:52.599Z,94
2018-03-04T06:07:52.849Z,94
2018-03-04T06:08:53.108Z,94
2018-03-04T06:09:52.652Z,94
2018-03-04T06:10:52.649Z,94
2018-03-04T06:11:53.121Z,94
2018-03-04T06:12:52.682Z,94
2018-03-04T06:13:52.629Z,94
2018-03-04T06:15:52.688Z,94
2018-03-04T06:16:52.907Z,94
2018-03-04T06:17:53.086Z,94
2018-03-04T06:18:52.898Z,94
2018-03-04T06:19:53.083Z,94
2018-03-04T06:20:53.060Z,94
2018-03-04T06:21:53.189Z,94
2018-03-04T06:22:52.685Z,95
2018-03-04T06:23:52.685Z,95
2018-03-04T06:24:53.068Z,95
2018-03-04T06:25:52.887Z,95
2018-03-04T06:26:53.080Z,95
2018-03-04T06:27:53.084Z,94
2018-03-04T06:28:52.686Z,94
2018-03-04T06:29:52.948Z,94
2018-03-04T06:30:52.797Z,94
2018-03-04T06:32:53.189Z,95
2018-03-04T06:33:52.923Z,95
2018-03-04T06:34:53.195Z,94
2018-03-04T06:35:52.725Z,94
2018-03-04T06:36:53.125Z,94
2018-03-04T06:37:52.683Z,94
2018-03-04T06:38:52.699Z,94
2018-03-04T06:39:52.894Z,95
2018-03-04T06:40:52.733Z,95
2018-03-04T06:41:53.101Z,95
2018-03-04T06:42:53.142Z,95
2018-03-04T06:43:52.876Z,95
2018-03-04T06:44:53.184Z,95
2018-03-04T06:45:53.137Z,95
2018-03-04T06:46:53.444Z,95
2018-03-04T06:47:53.001Z,95
2018-03-04T06:48:52.885Z,95
2018-03-04T06:49:54.272Z,95
2018-03-04T06:50:53.223Z,95
2018-03-04T06:51:52.723Z,95
2018-03-04T06:52:53.180Z,95
2018-03-04T06:53:53.171Z,95
2018-03-04T06:54:52.880Z,95
2018-03-04T06:55:53.122Z,95
2018-03-04T06:56:52.916Z,95
2018-03-04T06:57:53.114Z,95
2018-03-04T06:58:53.332Z,95
2018-03-04T06:59:52.722Z,95
2018-03-04T07:00:53.135Z,95
2018-03-04T07:01:52.901Z,95
2018-03-04T07:02:52.933Z,95
2018-03-04T07:03:53.184Z,95
2018-03-04T07:04:52.781Z,95
2018-03-04T07:12:25.496Z,95
2018-03-04T07:12:36.709Z,95
2018-03-04T07:13:36.479Z,95
2018-03-04T07:14:36.710Z,95
2018-03-04T07:16:36.501Z,95
2018-03-04T07:17:36.717Z,95
2018-03-04T07:18:36.237Z,95
2018-03-04T07:20:36.454Z,95
2018-03-04T07:23:36.689Z,95
2018-03-04T07:24:36.763Z,95
2018-03-04T07:25:36.772Z,95
2018-03-04T07:26:36.786Z,95
2018-03-04T07:27:36.817Z,95
2018-03-04T07:28:36.880Z,95
2018-03-04T07:29:37.156Z,95
2018-03-04T07:31:36.689Z,95
2018-03-04T07:32:36.301Z,95
2018-03-04T07:33:36.820Z,95
2018-03-04T07:34:36.426Z,95
2018-03-04T07:35:36.783Z,95
2018-03-04T07:37:36.946Z,95
2018-03-04T07:39:36.678Z,95
2018-03-04T07:40:36.906Z,95
2018-03-04T07:41:36.709Z,95
2018-03-04T07:42:36.379Z,95
2018-03-04T07:43:36.798Z,95
2018-03-04T07:44:36.416Z,95
2018-03-04T07:45:36.826Z,95
2018-03-04T07:46:36.772Z,95
2018-03-04T07:47:36.355Z,95
2018-03-04T07:48:36.784Z,95
2018-03-04T07:50:36.933Z,95
2018-03-04T07:51:36.773Z,95
2018-03-04T07:52:36.828Z,95
2018-03-04T07:53:36.391Z,95
2018-03-04T07:54:36.807Z,95
2018-03-04T07:56:36.370Z,95
2018-03-04T07:57:36.744Z,95
2018-03-04T07:58:36.747Z,95
2018-03-04T08:00:36.842Z,95
2018-03-04T08:01:36.867Z,95
2018-03-04T08:02:37.346Z,95
2018-03-04T08:03:36.381Z,95
2018-03-04T08:05:36.881Z,95
2018-03-04T08:06:36.493Z,95
2018-03-04T08:08:37.727Z,95
2018-03-04T08:09:36.872Z,94
2018-03-04T08:10:37.352Z,94
2018-03-04T08:11:37.905Z,94
2018-03-04T08:12:36.623Z,94
2018-03-04T08:14:06.545Z,94
2018-03-04T08:14:36.895Z,94
2018-03-04T08:16:37.315Z,94
2018-03-04T08:17:36.789Z,94
2018-03-04T08:18:36.863Z,94
2018-03-04T08:19:36.927Z,94
2018-03-04T08:20:36.575Z,94
2018-03-04T08:21:36.557Z,94
2018-03-04T08:22:36.853Z,94
2018-03-04T08:24:36.679Z,94
2018-03-04T08:25:39.684Z,94
2018-03-04T08:26:36.959Z,94
2018-03-04T08:27:37.261Z,94
2018-03-04T08:28:37.119Z,94
2018-03-04T08:29:37.084Z,93
2018-03-04T08:30:36.446Z,93
2018-03-04T08:31:36.907Z,93
2018-03-04T08:33:36.459Z,94
2018-03-04T08:35:36.609Z,94
2018-03-04T08:36:36.910Z,94
2018-03-04T08:37:36.947Z,94
2018-03-04T08:38:36.472Z,94
2018-03-04T08:40:36.868Z,93
2018-03-04T08:41:36.868Z,93
2018-03-04T08:42:36.602Z,93
2018-03-04T08:43:36.500Z,93
2018-03-04T08:44:37.069Z,93
2018-03-04T08:45:36.675Z,93
2018-03-04T08:46:36.925Z,93
2018-03-04T08:47:36.666Z,93
2018-03-04T08:48:36.925Z,93
2018-03-04T08:53:59.058Z,92
2018-03-04T08:54:09.014Z,92
2018-03-04T08:55:08.906Z,92
2018-03-04T08:56:09.298Z,92
2018-03-04T08:58:09.007Z,92
2018-03-04T08:59:09.320Z,92
2018-03-04T09:00:09.358Z,92
2018-03-04T09:01:09.066Z,92
2018-03-04T09:02:09.310Z,91
2018-03-04T09:03:09.007Z,91
2018-03-04T09:04:09.290Z,91
2018-03-04T09:06:09.147Z,91
2018-03-04T09:08:09.481Z,91
2018-03-04T09:09:09.337Z,91
2018-03-04T09:12:09.393Z,91
2018-03-04T09:13:08.925Z,91
2018-03-04T09:15:08.862Z,91
2018-03-04T09:17:08.876Z,91
2018-03-04T09:18:09.212Z,91
2018-03-04T09:19:09.316Z,91
2018-03-04T09:20:09.470Z,90
2018-03-04T09:21:09.068Z,90
2018-03-04T09:22:09.458Z,90
2018-03-04T09:23:09.245Z,90
2018-03-04T09:24:09.050Z,90
2018-03-04T09:25:09.065Z,90
2018-03-04T09:27:09.246Z,90
2018-03-04T09:28:09.303Z,90
2018-03-04T09:29:09.551Z,90
2018-03-04T09:30:09.353Z,90
2018-03-04T09:31:09.295Z,90
2018-03-04T09:32:09.096Z,90
2018-03-04T09:33:09.280Z,90
2018-03-04T09:34:08.978Z,90
2018-03-04T09:36:09.290Z,90
2018-03-04T09:37:09.062Z,90
2018-03-04T09:38:09.035Z,89
2018-03-04T09:39:09.285Z,89
2018-03-04T09:40:09.332Z,89
2018-03-04T09:42:09.070Z,89
2018-03-04T09:43:08.870Z,89
2018-03-04T09:44:09.756Z,89
2018-03-04T09:45:08.889Z,89
2018-03-04T09:46:09.388Z,89
2018-03-04T09:47:09.319Z,89
2018-03-04T09:48:09.571Z,89
2018-03-04T09:49:09.058Z,89
2018-03-04T09:53:09.105Z,89
2018-03-04T09:54:09.059Z,89
2018-03-04T09:55:09.354Z,89
2018-03-04T09:57:08.940Z,89
2018-03-04T09:58:09.396Z,89
2018-03-04T09:59:09.070Z,89
2018-03-04T10:01:09.300Z,89
2018-03-04T10:02:09.399Z,89
2018-03-04T10:03:09.148Z,89
2018-03-04T10:04:09.076Z,89
2018-03-04T10:05:09.432Z,89
2018-03-04T10:08:09.113Z,89
2018-03-04T10:09:09.109Z,89
2018-03-04T10:13:09.534Z,89
2018-03-04T10:14:11.012Z,89
2018-03-04T10:15:09.442Z,89
2018-03-04T10:16:09.465Z,89
2018-03-04T10:17:09.327Z,89
2018-03-04T10:18:09.352Z,89
2018-03-04T10:19:09.398Z,89
2018-03-04T10:21:08.989Z,89
2018-03-04T10:23:09.406Z,89
2018-03-04T10:24:09.407Z,89
2018-03-04T10:25:09.440Z,89
2018-03-04T10:27:09.433Z,89
2018-03-04T10:29:09.365Z,89
2018-03-04T10:30:09.393Z,89
2018-03-04T10:32:09.279Z,88
2018-03-04T10:33:09.137Z,88
2018-03-04T10:35:09.350Z,88
2018-03-04T10:36:08.951Z,88
2018-03-04T10:37:09.629Z,88
2018-03-04T10:38:09.354Z,88
2018-03-04T10:39:09.578Z,89
2018-03-04T10:41:09.365Z,89
2018-03-04T10:42:09.387Z,88
2018-03-04T10:43:09.183Z,88
2018-03-04T10:44:09.402Z,86
2018-03-04T10:46:09.413Z,86
2018-03-04T10:47:09.009Z,86
2018-03-04T10:48:09.484Z,86
2018-03-04T10:49:09.180Z,85
2018-03-04T10:50:09.426Z,85
2018-03-04T10:51:09.456Z,85
2018-03-04T10:52:09.188Z,86
2018-03-04T10:53:09.207Z,86
2018-03-04T10:54:09.001Z,85
2018-03-04T10:57:09.185Z,85
2018-03-04T10:58:09.499Z,85
2018-03-04T10:59:09.430Z,86
2018-03-04T11:00:09.488Z,86
2018-03-04T11:02:09.030Z,86
2018-03-04T11:03:09.375Z,86
2018-03-04T11:04:09.401Z,86
2018-03-04T11:05:09.115Z,86
2018-03-04T11:06:09.393Z,86
2018-03-04T11:07:09.028Z,86
2018-03-04T11:08:09.505Z,86
2018-03-04T11:09:09.358Z,86
2018-03-04T11:10:09.016Z,86
2018-03-04T11:11:09.418Z,86
2018-03-04T11:12:09.473Z,87
2018-03-04T11:13:09.108Z,87
2018-03-04T11:14:09.463Z,87
2018-03-04T11:17:09.499Z,86
2018-03-04T11:18:09.510Z,86
2018-03-04T11:19:09.084Z,86
2018-03-04T11:22:09.047Z,87
2018-03-04T11:23:09.053Z,87
2018-03-04T11:24:09.511Z,87
2018-03-04T11:27:09.042Z,86
2018-03-04T11:28:09.557Z,86
2018-03-04T11:29:09.460Z,86
2018-03-04T11:30:09.520Z,86
2018-03-04T11:32:09.092Z,86
2018-03-04T11:33:09.456Z,86
2018-03-04T11:34:09.070Z,86
2018-03-04T11:36:09.120Z,86
2018-03-04T11:37:09.472Z,86
2018-03-04T11:40:09.933Z,85
2018-03-04T11:42:09.538Z,85
2018-03-04T11:44:09.130Z,84
2018-03-04T11:46:09.583Z,84
2018-03-04T11:48:09.526Z,84
2018-03-04T11:49:09.281Z,84
2018-03-04T11:50:09.505Z,83
2018-03-04T11:52:09.312Z,83
2018-03-04T11:53:09.195Z,83
2018-03-04T11:54:09.112Z,83
2018-03-04T11:57:09.527Z,83
2018-03-04T12:00:09.107Z,84
2018-03-04T12:01:09.132Z,84
2018-03-04T12:02:09.572Z,84
2018-03-04T12:03:09.533Z,85
2018-03-04T12:04:09.296Z,85
2018-03-04T12:05:09.512Z,84
2018-03-04T12:06:09.579Z,84
2018-03-04T12:07:09.303Z,84
2018-03-04T12:08:09.587Z,84
2018-03-04T12:09:09.308Z,84
2018-03-04T12:10:09.327Z,84
2018-03-04T12:11:09.566Z,84
2018-03-04T12:12:09.337Z,84
2018-03-04T12:13:09.585Z,84
2018-03-04T12:14:09.454Z,84
2018-03-04T12:15:09.528Z,84
2018-03-04T12:16:09.652Z,83
2018-03-04T12:17:09.334Z,83
2018-03-04T12:18:09.346Z,83
2018-03-04T12:20:09.172Z,83
2018-03-04T12:22:09.574Z,82
2018-03-04T12:23:09.604Z,81
2018-03-04T12:24:09.623Z,81
2018-03-04T12:25:09.370Z,81
2018-03-04T12:26:09.380Z,80
2018-03-04T12:28:09.651Z,80
2018-03-04T12:29:09.685Z,80
2018-03-04T12:30:09.436Z,80
2018-03-04T12:32:09.333Z,80
2018-03-04T12:33:09.396Z,80
2018-03-04T12:34:09.588Z,80
2018-03-04T12:36:09.200Z,79
2018-03-04T12:37:09.641Z,79
2018-03-04T12:38:09.376Z,79
2018-03-04T12:39:09.589Z,79
2018-03-04T12:40:09.450Z,79
2018-03-04T12:42:09.675Z,80
2018-03-04T12:43:09.697Z,80
2018-03-04T12:44:09.708Z,81
2018-03-04T12:45:09.269Z,81
2018-03-04T12:46:09.676Z,81
2018-03-04T12:47:09.207Z,81
2018-03-04T12:48:10.335Z,81
2018-03-04T12:49:09.432Z,81
2018-03-04T12:50:09.661Z,81
2018-03-04T12:52:09.592Z,81
2018-03-04T12:53:09.188Z,81
2018-03-04T12:54:09.402Z,82
2018-03-04T12:55:09.745Z,82
2018-03-04T12:57:09.677Z,81
2018-03-04T12:58:09.194Z,81
2018-03-04T12:59:09.707Z,81
2018-03-04T13:00:09.206Z,81
2018-03-04T13:02:09.752Z,79
2018-03-04T13:03:09.296Z,79
2018-03-04T13:04:09.228Z,79
2018-03-04T13:05:09.654Z,79
2018-03-04T13:07:13.322Z,78
2018-03-04T13:08:11.540Z,78
2018-03-04T13:09:09.642Z,78
2018-03-04T13:10:09.329Z,78
2018-03-04T13:11:09.366Z,78
2018-03-04T13:12:09.668Z,77
2018-03-04T13:13:09.910Z,77
2018-03-04T13:14:09.435Z,77
2018-03-04T13:15:09.408Z,77
2018-03-04T13:17:12.397Z,77
2018-03-04T13:18:11.308Z,77
2018-03-04T13:19:09.983Z,77
2018-03-04T13:20:09.740Z,77
2018-03-04T13:21:09.673Z,77
2018-03-04T13:23:09.538Z,78
2018-03-04T13:24:09.734Z,77
2018-03-04T13:25:09.441Z,77
2018-03-04T13:26:09.652Z,77
2018-03-04T13:28:09.272Z,77
2018-03-04T13:31:09.878Z,78
2018-03-04T13:32:09.424Z,77
2018-03-04T13:33:09.712Z,77
2018-03-04T13:34:09.438Z,77
2018-03-04T13:35:09.647Z,77
2018-03-04T13:36:09.662Z,77
2018-03-04T13:37:09.242Z,77
2018-03-04T13:38:09.698Z,77
2018-03-04T13:39:09.307Z,77
2018-03-04T13:40:09.736Z,77
2018-03-04T13:41:09.706Z,77
2018-03-04T13:42:09.464Z,77
2018-03-04T13:43:09.510Z,77
2018-03-04T13:44:09.281Z,77
2018-03-04T13:45:09.649Z,76
2018-03-04T13:46:09.714Z,76
2018-03-04T13:47:09.287Z,76
2018-03-04T13:50:09.478Z,75
2018-03-04T13:52:09.784Z,76
2018-03-04T13:53:09.809Z,76
2018-03-04T13:56:09.501Z,76
2018-03-04T13:58:09.514Z,76
2018-03-04T14:00:09.768Z,77
2018-03-04T14:02:09.372Z,77
2018-03-04T14:03:09.519Z,77
2018-03-04T14:04:09.521Z,77
2018-03-04T14:05:09.762Z,77
2018-03-04T14:06:09.469Z,77
2018-03-04T14:07:09.781Z,77
2018-03-04T14:10:09.790Z,77
2018-03-04T14:12:09.703Z,77
2018-03-04T14:13:09.799Z,77
2018-03-04T14:14:09.488Z,77
2018-03-04T14:15:09.512Z,77
2018-03-04T14:17:09.429Z,77
2018-03-04T14:18:10.388Z,77
2018-03-04T14:20:09.920Z,77
2018-03-04T14:22:09.387Z,77
2018-03-04T14:23:09.829Z,77
2018-03-04T14:26:09.927Z,77
2018-03-04T14:27:09.755Z,77
2018-03-04T14:28:09.711Z,78
2018-03-04T14:29:09.396Z,78
2018-03-04T14:30:09.512Z,77
2018-03-04T14:31:09.539Z,77
2018-03-04T14:33:09.770Z,77
2018-03-04T14:34:09.866Z,77
2018-03-04T14:35:09.891Z,77
2018-03-04T14:37:09.842Z,77
2018-03-04T14:38:09.831Z,77
2018-03-04T14:39:09.900Z,77
2018-03-04T14:41:09.977Z,77
2018-03-04T14:42:09.578Z,77
2018-03-04T14:43:09.802Z,78
2018-03-04T14:45:10.053Z,78
2018-03-04T14:46:09.852Z,77
2018-03-04T14:47:09.845Z,77
2018-03-04T14:48:09.437Z,77
2018-03-04T14:49:09.388Z,77
2018-03-04T14:50:09.828Z,77
2018-03-04T14:51:09.559Z,77
2018-03-04T14:52:09.915Z,77
2018-03-04T14:53:09.413Z,77
2018-03-04T14:54:09.580Z,77
2018-03-04T14:56:09.876Z,76
2018-03-04T14:57:09.575Z,76
2018-03-04T14:58:09.687Z,76
2018-03-04T14:59:10.009Z,76
2018-03-04T15:00:09.981Z,76
2018-03-04T15:01:10.009Z,76
2018-03-04T15:03:09.472Z,76
2018-03-04T15:04:09.838Z,76
2018-03-04T15:06:09.462Z,75
2018-03-04T15:08:09.430Z,75
2018-03-04T15:09:09.856Z,75
2018-03-04T15:12:09.606Z,75
2018-03-04T15:13:09.456Z,75
2018-03-04T15:14:09.936Z,75
2018-03-04T15:15:09.462Z,75
2018-03-04T15:17:09.936Z,75
2018-03-04T15:18:09.919Z,75
2018-03-04T15:19:09.664Z,75
2018-03-04T15:20:09.848Z,75
2018-03-04T15:22:09.844Z,75
2018-03-04T15:23:09.923Z,75
2018-03-04T15:24:09.462Z,76
2018-03-04T15:25:09.484Z,76
2018-03-04T15:28:09.669Z,76
2018-03-04T15:29:09.530Z,76
2018-03-04T15:30:09.851Z,76
2018-03-04T15:31:09.869Z,76
2018-03-04T15:32:09.856Z,76
2018-03-04T15:34:09.508Z,76
2018-03-04T15:35:09.475Z,76
2018-03-04T15:36:10.050Z,75
2018-03-04T15:37:09.667Z,75
2018-03-04T15:38:09.914Z,75
2018-03-04T15:39:09.697Z,76
2018-03-04T15:40:09.922Z,76
2018-03-04T15:41:09.696Z,76
2018-03-04T15:43:09.977Z,76
2018-03-04T15:44:09.929Z,76
2018-03-04T15:45:09.538Z,76
2018-03-04T15:46:09.944Z,76
2018-03-04T15:47:09.884Z,76
2018-03-04T15:48:09.929Z,76
2018-03-04T15:50:09.575Z,76
2018-03-04T15:52:09.952Z,76
2018-03-04T15:53:09.923Z,76
2018-03-04T15:54:09.964Z,77
2018-03-04T15:57:09.518Z,77
2018-03-04T15:58:09.689Z,77
2018-03-04T15:59:10.081Z,77
2018-03-04T16:00:09.988Z,77
2018-03-04T16:01:09.740Z,77
2018-03-04T16:02:10.078Z,77
2018-03-04T16:03:10.004Z,77
2018-03-04T16:04:10.015Z,77
2018-03-04T16:05:09.530Z,77
2018-03-04T16:07:10.025Z,77
2018-03-04T16:09:09.555Z,77
2018-03-04T16:11:10.028Z,77
2018-03-04T16:12:09.681Z,77
2018-03-04T16:13:09.687Z,77
2018-03-04T16:14:09.957Z,77
2018-03-04T16:17:09.778Z,77
2018-03-04T16:18:09.925Z,77
2018-03-04T16:19:09.582Z,77
2018-03-04T16:20:09.564Z,77
2018-03-04T16:21:09.814Z,77
2018-03-04T16:22:10.026Z,77
2018-03-04T16:23:09.759Z,77
2018-03-04T16:24:09.796Z,77
2018-03-04T16:25:09.815Z,78
2018-03-04T16:26:09.992Z,78
2018-03-04T16:27:09.943Z,78
2018-03-04T16:30:10.016Z,78
2018-03-04T16:31:09.886Z,78
2018-03-04T16:32:10.051Z,78
2018-03-04T16:33:09.696Z,78
2018-03-04T16:34:09.800Z,78
2018-03-04T16:35:09.815Z,77
2018-03-04T16:36:10.197Z,77
2018-03-04T16:37:10.145Z,77
2018-03-04T16:38:09.600Z,77
2018-03-04T16:39:09.778Z,77
2018-03-04T16:40:09.811Z,77
2018-03-04T16:41:10.106Z,77
2018-03-04T16:42:09.777Z,77
2018-03-04T16:44:10.061Z,77
2018-03-04T16:45:09.606Z,77
2018-03-04T16:47:10.046Z,77
2018-03-04T16:48:09.886Z,78
2018-03-04T16:49:10.133Z,78
2018-03-04T16:51:10.131Z,77
2018-03-04T16:52:09.809Z,77
2018-03-04T16:53:10.016Z,77
2018-03-04T16:54:10.014Z,77
2018-03-04T16:55:09.832Z,77
2018-03-04T16:57:10.060Z,77
2018-03-04T16:58:09.855Z,77
2018-03-04T16:59:09.819Z,77
2018-03-04T17:00:10.069Z,78
2018-03-04T17:01:09.663Z,78
2018-03-04T17:02:10.094Z,78